sensor_id;sensor_type;location;lat;lon;timestamp;P1;durP1;ratioP1;P2;durP2;ratioP2
25946;SDS011;13745;51.470;9.894;2023-04-30T00:00:46;10.32;;;6.72;;
25946;SDS011;13745;51.470;9.894;2023-04-30T00:03:30;10.37;;;6.77;;
25946;SDS011;13745;51.470;9.894;2023-04-30T00:06:15;9.23;;;6.90;;
25946;SDS011;13745;51.470;9.894;2023-04-30T00:09:00;9.18;;;7.05;;
25946;SDS011;13745;51.470;9.894;2023-04-30T00:11:45;8.30;;;6.75;;
25946;SDS011;13745;51.470;9.894;2023-04-30T00:14:32;8.45;;;6.63;;
25946;SDS011;13745;51.470;9.894;2023-04-30T00:17:17;8.40;;;6.40;;
25946;SDS011;13745;51.470;9.894;2023-04-30T00:20:02;12.05;;;6.63;;
25946;SDS011;13745;51.470;9.894;2023-04-30T00:22:48;7.85;;;6.30;;
25946;SDS011;13745;51.470;9.894;2023-04-30T00:25:33;7.80;;;6.07;;
25946;SDS011;13745;51.470;9.894;2023-04-30T00:28:19;8.57;;;6.05;;
25946;SDS011;13745;51.470;9.894;2023-04-30T00:31:05;7.78;;;5.85;;
25946;SDS011;13745;51.470;9.894;2023-04-30T00:33:52;7.00;;;5.85;;
25946;SDS011;13745;51.470;9.894;2023-04-30T00:36:37;8.23;;;5.85;;
25946;SDS011;13745;51.470;9.894;2023-04-30T00:39:22;8.05;;;6.07;;
25946;SDS011;13745;51.470;9.894;2023-04-30T00:42:07;8.98;;;6.00;;
25946;SDS011;13745;51.470;9.894;2023-04-30T00:44:52;7.60;;;5.97;;
25946;SDS011;13745;51.470;9.894;2023-04-30T00:47:38;7.00;;;6.10;;
25946;SDS011;13745;51.470;9.894;2023-04-30T00:50:24;12.15;;;6.60;;
25946;SDS011;13745;51.470;9.894;2023-04-30T00:53:10;7.50;;;5.47;;
25946;SDS011;13745;51.470;9.894;2023-04-30T00:55:55;7.38;;;5.85;;
25946;SDS011;13745;51.470;9.894;2023-04-30T00:58:40;8.00;;;6.15;;
25946;SDS011;13745;51.470;9.894;2023-04-30T01:01:26;9.40;;;6.30;;
25946;SDS011;13745;51.470;9.894;2023-04-30T01:04:14;10.82;;;6.10;;
25946;SDS011;13745;51.470;9.894;2023-04-30T01:06:59;11.98;;;6.18;;
25946;SDS011;13745;51.470;9.894;2023-04-30T01:09:44;8.53;;;5.77;;
25946;SDS011;13745;51.470;9.894;2023-04-30T01:12:32;7.55;;;5.80;;
25946;SDS011;13745;51.470;9.894;2023-04-30T01:15:25;7.72;;;5.95;;
25946;SDS011;13745;51.470;9.894;2023-04-30T01:18:17;8.25;;;6.63;;
25946;SDS011;13745;51.470;9.894;2023-04-30T01:21:13;8.68;;;5.75;;
25946;SDS011;13745;51.470;9.894;2023-04-30T01:24:05;7.78;;;5.82;;
25946;SDS011;13745;51.470;9.894;2023-04-30T01:27:11;7.70;;;6.00;;
25946;SDS011;13745;51.470;9.894;2023-04-30T01:30:08;9.07;;;5.77;;
25946;SDS011;13745;51.470;9.894;2023-04-30T01:32:55;7.65;;;5.60;;
25946;SDS011;13745;51.470;9.894;2023-04-30T01:39:05;7.75;;;5.80;;
25946;SDS011;13745;51.470;9.894;2023-04-30T01:42:09;11.63;;;6.75;;
25946;SDS011;13745;51.470;9.894;2023-04-30T01:45:00;9.63;;;6.20;;
25946;SDS011;13745;51.470;9.894;2023-04-30T01:48:07;7.88;;;6.22;;
25946;SDS011;13745;51.470;9.894;2023-04-30T01:51:03;7.72;;;5.20;;
25946;SDS011;13745;51.470;9.894;2023-04-30T01:53:54;7.45;;;6.25;;
25946;SDS011;13745;51.470;9.894;2023-04-30T01:56:43;7.70;;;6.20;;
25946;SDS011;13745;51.470;9.894;2023-04-30T01:59:34;10.95;;;6.82;;
25946;SDS011;13745;51.470;9.894;2023-04-30T02:02:23;9.57;;;7.17;;
25946;SDS011;13745;51.470;9.894;2023-04-30T02:05:08;10.48;;;7.45;;
25946;SDS011;13745;51.470;9.894;2023-04-30T02:07:53;12.48;;;7.13;;
25946;SDS011;13745;51.470;9.894;2023-04-30T02:10:38;7.68;;;6.57;;
25946;SDS011;13745;51.470;9.894;2023-04-30T02:13:23;10.15;;;7.13;;
25946;SDS011;13745;51.470;9.894;2023-04-30T02:16:08;8.38;;;7.03;;
25946;SDS011;13745;51.470;9.894;2023-04-30T02:18:55;9.02;;;7.18;;
25946;SDS011;13745;51.470;9.894;2023-04-30T02:21:40;9.43;;;7.13;;
25946;SDS011;13745;51.470;9.894;2023-04-30T02:24:25;10.02;;;7.22;;
25946;SDS011;13745;51.470;9.894;2023-04-30T02:27:10;11.48;;;7.15;;
25946;SDS011;13745;51.470;9.894;2023-04-30T02:29:55;10.13;;;7.77;;
25946;SDS011;13745;51.470;9.894;2023-04-30T02:32:40;10.13;;;7.85;;
25946;SDS011;13745;51.470;9.894;2023-04-30T02:35:28;11.65;;;7.50;;
25946;SDS011;13745;51.470;9.894;2023-04-30T02:38:13;12.80;;;7.70;;
25946;SDS011;13745;51.470;9.894;2023-04-30T02:40:58;12.82;;;7.63;;
25946;SDS011;13745;51.470;9.894;2023-04-30T02:43:43;10.83;;;7.27;;
25946;SDS011;13745;51.470;9.894;2023-04-30T02:46:28;9.48;;;7.75;;
25946;SDS011;13745;51.470;9.894;2023-04-30T02:49:13;13.52;;;8.20;;
25946;SDS011;13745;51.470;9.894;2023-04-30T02:52:00;12.57;;;7.83;;
25946;SDS011;13745;51.470;9.894;2023-04-30T02:54:45;12.23;;;7.88;;
25946;SDS011;13745;51.470;9.894;2023-04-30T02:57:30;18.17;;;8.50;;
25946;SDS011;13745;51.470;9.894;2023-04-30T03:00:16;10.23;;;7.60;;
25946;SDS011;13745;51.470;9.894;2023-04-30T03:03:01;11.43;;;7.80;;
25946;SDS011;13745;51.470;9.894;2023-04-30T03:05:46;13.38;;;7.80;;
25946;SDS011;13745;51.470;9.894;2023-04-30T03:08:33;9.13;;;7.03;;
25946;SDS011;13745;51.470;9.894;2023-04-30T03:11:18;10.55;;;7.53;;
25946;SDS011;13745;51.470;9.894;2023-04-30T03:14:04;11.95;;;7.10;;
25946;SDS011;13745;51.470;9.894;2023-04-30T03:16:50;10.52;;;7.10;;
25946;SDS011;13745;51.470;9.894;2023-04-30T03:19:35;12.45;;;7.13;;
25946;SDS011;13745;51.470;9.894;2023-04-30T03:22:20;11.45;;;7.00;;
25946;SDS011;13745;51.470;9.894;2023-04-30T03:25:08;10.10;;;6.65;;
25946;SDS011;13745;51.470;9.894;2023-04-30T03:27:54;9.32;;;6.40;;
25946;SDS011;13745;51.470;9.894;2023-04-30T03:30:39;10.18;;;6.30;;
25946;SDS011;13745;51.470;9.894;2023-04-30T03:33:25;9.15;;;6.20;;
25946;SDS011;13745;51.470;9.894;2023-04-30T03:36:10;9.60;;;6.25;;
25946;SDS011;13745;51.470;9.894;2023-04-30T03:38:55;12.60;;;7.15;;
25946;SDS011;13745;51.470;9.894;2023-04-30T03:41:41;8.95;;;6.10;;
25946;SDS011;13745;51.470;9.894;2023-04-30T03:44:27;10.47;;;6.70;;
25946;SDS011;13745;51.470;9.894;2023-04-30T03:47:12;8.05;;;6.43;;
25946;SDS011;13745;51.470;9.894;2023-04-30T03:49:57;10.43;;;6.33;;
25946;SDS011;13745;51.470;9.894;2023-04-30T03:52:42;11.80;;;6.57;;
25946;SDS011;13745;51.470;9.894;2023-04-30T03:55:29;16.13;;;7.15;;
25946;SDS011;13745;51.470;9.894;2023-04-30T03:58:15;9.57;;;6.28;;
25946;SDS011;13745;51.470;9.894;2023-04-30T04:01:01;10.77;;;6.70;;
25946;SDS011;13745;51.470;9.894;2023-04-30T04:03:46;11.68;;;6.88;;
25946;SDS011;13745;51.470;9.894;2023-04-30T04:06:31;10.07;;;6.13;;
25946;SDS011;13745;51.470;9.894;2023-04-30T04:09:16;13.15;;;6.70;;
25946;SDS011;13745;51.470;9.894;2023-04-30T04:12:01;11.50;;;6.13;;
25946;SDS011;13745;51.470;9.894;2023-04-30T04:14:47;8.68;;;6.03;;
25946;SDS011;13745;51.470;9.894;2023-04-30T04:17:33;10.93;;;5.85;;
25946;SDS011;13745;51.470;9.894;2023-04-30T04:20:19;8.80;;;6.10;;
25946;SDS011;13745;51.470;9.894;2023-04-30T04:23:04;8.88;;;6.28;;
25946;SDS011;13745;51.470;9.894;2023-04-30T04:25:48;14.02;;;7.57;;
25946;SDS011;13745;51.470;9.894;2023-04-30T04:28:34;18.50;;;7.72;;
25946;SDS011;13745;51.470;9.894;2023-04-30T04:31:22;13.32;;;7.35;;
25946;SDS011;13745;51.470;9.894;2023-04-30T04:34:07;21.85;;;9.93;;
25946;SDS011;13745;51.470;9.894;2023-04-30T04:36:53;25.08;;;12.00;;
25946;SDS011;13745;51.470;9.894;2023-04-30T04:39:38;15.02;;;7.72;;
25946;SDS011;13745;51.470;9.894;2023-04-30T04:42:23;35.22;;;16.75;;
25946;SDS011;13745;51.470;9.894;2023-04-30T04:45:08;14.40;;;6.85;;
25946;SDS011;13745;51.470;9.894;2023-04-30T04:47:57;13.52;;;6.70;;
25946;SDS011;13745;51.470;9.894;2023-04-30T04:50:42;11.65;;;6.28;;
25946;SDS011;13745;51.470;9.894;2023-04-30T04:53:27;9.53;;;6.07;;
25946;SDS011;13745;51.470;9.894;2023-04-30T04:56:12;12.65;;;6.20;;
25946;SDS011;13745;51.470;9.894;2023-04-30T04:58:57;8.55;;;5.30;;
25946;SDS011;13745;51.470;9.894;2023-04-30T05:01:43;11.48;;;5.88;;
25946;SDS011;13745;51.470;9.894;2023-04-30T05:04:29;8.65;;;5.32;;
25946;SDS011;13745;51.470;9.894;2023-04-30T05:07:14;10.18;;;5.43;;
25946;SDS011;13745;51.470;9.894;2023-04-30T05:10:00;10.35;;;5.25;;
25946;SDS011;13745;51.470;9.894;2023-04-30T05:12:45;9.40;;;5.72;;
25946;SDS011;13745;51.470;9.894;2023-04-30T05:15:30;6.95;;;4.57;;
25946;SDS011;13745;51.470;9.894;2023-04-30T05:18:15;7.97;;;4.70;;
25946;SDS011;13745;51.470;9.894;2023-04-30T05:21:01;11.32;;;4.57;;
25946;SDS011;13745;51.470;9.894;2023-04-30T05:23:47;8.60;;;4.88;;
25946;SDS011;13745;51.470;9.894;2023-04-30T05:26:32;8.52;;;4.93;;
25946;SDS011;13745;51.470;9.894;2023-04-30T05:29:17;13.95;;;5.60;;
25946;SDS011;13745;51.470;9.894;2023-04-30T05:32:02;9.27;;;5.22;;
25946;SDS011;13745;51.470;9.894;2023-04-30T05:34:47;11.43;;;5.60;;
25946;SDS011;13745;51.470;9.894;2023-04-30T05:37:34;8.18;;;5.03;;
25946;SDS011;13745;51.470;9.894;2023-04-30T05:40:19;11.50;;;5.70;;
25946;SDS011;13745;51.470;9.894;2023-04-30T05:43:04;10.27;;;6.03;;
25946;SDS011;13745;51.470;9.894;2023-04-30T05:45:49;10.13;;;5.55;;
25946;SDS011;13745;51.470;9.894;2023-04-30T05:48:34;12.37;;;5.30;;
25946;SDS011;13745;51.470;9.894;2023-04-30T05:51:19;12.15;;;4.68;;
25946;SDS011;13745;51.470;9.894;2023-04-30T05:54:05;11.15;;;5.00;;
25946;SDS011;13745;51.470;9.894;2023-04-30T05:56:51;11.68;;;4.95;;
25946;SDS011;13745;51.470;9.894;2023-04-30T05:59:36;10.82;;;4.95;;
25946;SDS011;13745;51.470;9.894;2023-04-30T06:02:21;8.80;;;4.82;;
25946;SDS011;13745;51.470;9.894;2023-04-30T06:05:06;12.18;;;5.30;;
25946;SDS011;13745;51.470;9.894;2023-04-30T06:07:52;11.00;;;5.47;;
25946;SDS011;13745;51.470;9.894;2023-04-30T06:10:38;9.13;;;4.40;;
25946;SDS011;13745;51.470;9.894;2023-04-30T06:13:24;10.38;;;4.25;;
25946;SDS011;13745;51.470;9.894;2023-04-30T06:16:09;6.90;;;3.22;;
25946;SDS011;13745;51.470;9.894;2023-04-30T06:18:54;14.75;;;5.05;;
25946;SDS011;13745;51.470;9.894;2023-04-30T06:21:39;12.18;;;3.42;;
25946;SDS011;13745;51.470;9.894;2023-04-30T06:24:26;8.88;;;4.35;;
25946;SDS011;13745;51.470;9.894;2023-04-30T06:27:14;8.38;;;3.13;;
25946;SDS011;13745;51.470;9.894;2023-04-30T06:29:59;8.02;;;3.20;;
25946;SDS011;13745;51.470;9.894;2023-04-30T06:32:44;13.68;;;3.13;;
25946;SDS011;13745;51.470;9.894;2023-04-30T06:35:29;12.73;;;3.90;;
25946;SDS011;13745;51.470;9.894;2023-04-30T06:38:15;9.68;;;3.42;;
25946;SDS011;13745;51.470;9.894;2023-04-30T06:41:00;11.93;;;3.67;;
25946;SDS011;13745;51.470;9.894;2023-04-30T06:43:47;8.20;;;3.63;;
25946;SDS011;13745;51.470;9.894;2023-04-30T06:46:32;11.35;;;4.00;;
25946;SDS011;13745;51.470;9.894;2023-04-30T06:49:17;7.15;;;3.38;;
25946;SDS011;13745;51.470;9.894;2023-04-30T06:52:02;10.35;;;4.50;;
25946;SDS011;13745;51.470;9.894;2023-04-30T06:54:48;9.53;;;4.67;;
25946;SDS011;13745;51.470;9.894;2023-04-30T06:57:33;8.95;;;4.18;;
25946;SDS011;13745;51.470;9.894;2023-04-30T07:00:21;6.35;;;4.35;;
25946;SDS011;13745;51.470;9.894;2023-04-30T07:03:06;11.63;;;4.05;;
25946;SDS011;13745;51.470;9.894;2023-04-30T07:05:51;10.65;;;3.85;;
25946;SDS011;13745;51.470;9.894;2023-04-30T07:08:36;8.20;;;3.50;;
25946;SDS011;13745;51.470;9.894;2023-04-30T07:11:23;8.48;;;4.07;;
25946;SDS011;13745;51.470;9.894;2023-04-30T07:14:08;9.25;;;4.80;;
25946;SDS011;13745;51.470;9.894;2023-04-30T07:16:55;9.18;;;4.00;;
25946;SDS011;13745;51.470;9.894;2023-04-30T07:19:40;6.72;;;3.40;;
25946;SDS011;13745;51.470;9.894;2023-04-30T07:22:26;11.43;;;3.65;;
25946;SDS011;13745;51.470;9.894;2023-04-30T07:25:11;9.73;;;3.75;;
25946;SDS011;13745;51.470;9.894;2023-04-30T07:27:56;9.55;;;3.70;;
25946;SDS011;13745;51.470;9.894;2023-04-30T07:30:41;6.30;;;3.35;;
25946;SDS011;13745;51.470;9.894;2023-04-30T07:33:28;7.47;;;3.75;;
25946;SDS011;13745;51.470;9.894;2023-04-30T07:36:13;7.45;;;3.03;;
25946;SDS011;13745;51.470;9.894;2023-04-30T07:38:58;11.88;;;3.67;;
25946;SDS011;13745;51.470;9.894;2023-04-30T07:41:43;9.50;;;2.83;;
25946;SDS011;13745;51.470;9.894;2023-04-30T07:44:28;8.73;;;3.40;;
25946;SDS011;13745;51.470;9.894;2023-04-30T07:47:14;10.43;;;3.53;;
25946;SDS011;13745;51.470;9.894;2023-04-30T07:50:01;5.85;;;3.30;;
25946;SDS011;13745;51.470;9.894;2023-04-30T07:52:47;11.95;;;3.60;;
25946;SDS011;13745;51.470;9.894;2023-04-30T07:55:32;6.78;;;2.90;;
25946;SDS011;13745;51.470;9.894;2023-04-30T07:58:18;6.25;;;2.92;;
25946;SDS011;13745;51.470;9.894;2023-04-30T08:01:03;8.35;;;3.65;;
25946;SDS011;13745;51.470;9.894;2023-04-30T08:03:48;14.73;;;5.38;;
25946;SDS011;13745;51.470;9.894;2023-04-30T08:06:34;10.63;;;3.42;;
25946;SDS011;13745;51.470;9.894;2023-04-30T08:09:20;8.77;;;2.97;;
25946;SDS011;13745;51.470;9.894;2023-04-30T08:12:05;8.95;;;2.55;;
25946;SDS011;13745;51.470;9.894;2023-04-30T08:14:58;11.30;;;3.50;;
25946;SDS011;13745;51.470;9.894;2023-04-30T08:17:43;7.03;;;2.35;;
25946;SDS011;13745;51.470;9.894;2023-04-30T08:20:28;7.25;;;2.85;;
25946;SDS011;13745;51.470;9.894;2023-04-30T08:23:15;10.57;;;3.22;;
25946;SDS011;13745;51.470;9.894;2023-04-30T08:26:00;8.52;;;2.90;;
25946;SDS011;13745;51.470;9.894;2023-04-30T08:28:45;11.82;;;3.30;;
25946;SDS011;13745;51.470;9.894;2023-04-30T08:31:30;6.20;;;3.20;;
25946;SDS011;13745;51.470;9.894;2023-04-30T08:34:16;9.93;;;2.88;;
25946;SDS011;13745;51.470;9.894;2023-04-30T08:37:01;9.70;;;2.80;;
25946;SDS011;13745;51.470;9.894;2023-04-30T08:39:47;10.00;;;2.60;;
25946;SDS011;13745;51.470;9.894;2023-04-30T08:42:33;9.27;;;2.63;;
25946;SDS011;13745;51.470;9.894;2023-04-30T08:45:21;9.43;;;2.28;;
25946;SDS011;13745;51.470;9.894;2023-04-30T08:48:07;9.95;;;2.33;;
25946;SDS011;13745;51.470;9.894;2023-04-30T08:50:55;15.23;;;3.08;;
25946;SDS011;13745;51.470;9.894;2023-04-30T08:53:42;10.18;;;2.38;;
25946;SDS011;13745;51.470;9.894;2023-04-30T08:56:30;9.80;;;2.47;;
25946;SDS011;13745;51.470;9.894;2023-04-30T08:59:17;7.85;;;2.03;;
25946;SDS011;13745;51.470;9.894;2023-04-30T09:02:01;7.18;;;2.05;;
25946;SDS011;13745;51.470;9.894;2023-04-30T09:04:47;6.78;;;2.28;;
25946;SDS011;13745;51.470;9.894;2023-04-30T09:07:32;9.63;;;2.30;;
25946;SDS011;13745;51.470;9.894;2023-04-30T09:10:19;8.48;;;2.50;;
25946;SDS011;13745;51.470;9.894;2023-04-30T09:13:07;6.57;;;2.25;;
25946;SDS011;13745;51.470;9.894;2023-04-30T09:15:54;5.40;;;2.10;;
25946;SDS011;13745;51.470;9.894;2023-04-30T09:18:43;7.13;;;2.33;;
25946;SDS011;13745;51.470;9.894;2023-04-30T09:21:29;5.88;;;2.20;;
25946;SDS011;13745;51.470;9.894;2023-04-30T09:24:16;7.97;;;2.15;;
25946;SDS011;13745;51.470;9.894;2023-04-30T09:27:02;9.32;;;2.40;;
25946;SDS011;13745;51.470;9.894;2023-04-30T09:30:01;4.40;;;2.00;;
25946;SDS011;13745;51.470;9.894;2023-04-30T09:32:53;7.22;;;2.25;;
25946;SDS011;13745;51.470;9.894;2023-04-30T09:35:39;8.98;;;1.77;;
25946;SDS011;13745;51.470;9.894;2023-04-30T09:38:26;5.97;;;1.80;;
25946;SDS011;13745;51.470;9.894;2023-04-30T09:41:22;7.18;;;1.95;;
25946;SDS011;13745;51.470;9.894;2023-04-30T09:47:11;5.95;;;2.15;;
25946;SDS011;13745;51.470;9.894;2023-04-30T09:49:58;7.43;;;1.80;;
25946;SDS011;13745;51.470;9.894;2023-04-30T09:52:46;4.90;;;1.85;;
25946;SDS011;13745;51.470;9.894;2023-04-30T09:55:35;7.85;;;2.50;;
25946;SDS011;13745;51.470;9.894;2023-04-30T09:58:21;6.88;;;2.45;;
25946;SDS011;13745;51.470;9.894;2023-04-30T10:01:09;7.75;;;2.13;;
25946;SDS011;13745;51.470;9.894;2023-04-30T10:03:56;8.68;;;2.25;;
25946;SDS011;13745;51.470;9.894;2023-04-30T10:06:41;5.88;;;2.78;;
25946;SDS011;13745;51.470;9.894;2023-04-30T10:09:28;5.65;;;2.10;;
25946;SDS011;13745;51.470;9.894;2023-04-30T10:12:19;4.85;;;2.17;;
25946;SDS011;13745;51.470;9.894;2023-04-30T10:15:08;6.53;;;1.50;;
25946;SDS011;13745;51.470;9.894;2023-04-30T10:17:59;6.15;;;2.00;;
25946;SDS011;13745;51.470;9.894;2023-04-30T10:20:49;3.35;;;1.92;;
25946;SDS011;13745;51.470;9.894;2023-04-30T10:23:37;6.30;;;1.80;;
25946;SDS011;13745;51.470;9.894;2023-04-30T10:26:24;7.97;;;2.08;;
25946;SDS011;13745;51.470;9.894;2023-04-30T10:29:10;7.40;;;2.08;;
25946;SDS011;13745;51.470;9.894;2023-04-30T10:31:57;5.80;;;2.25;;
25946;SDS011;13745;51.470;9.894;2023-04-30T10:34:45;8.80;;;2.67;;
25946;SDS011;13745;51.470;9.894;2023-04-30T10:40:27;4.60;;;1.75;;
25946;SDS011;13745;51.470;9.894;2023-04-30T10:43:12;7.32;;;2.33;;
25946;SDS011;13745;51.470;9.894;2023-04-30T10:45:57;3.97;;;1.52;;
25946;SDS011;13745;51.470;9.894;2023-04-30T10:48:43;3.42;;;1.85;;
25946;SDS011;13745;51.470;9.894;2023-04-30T10:51:46;3.28;;;1.65;;
25946;SDS011;13745;51.470;9.894;2023-04-30T10:54:34;4.10;;;1.70;;
25946;SDS011;13745;51.470;9.894;2023-04-30T10:57:20;4.40;;;1.48;;
25946;SDS011;13745;51.470;9.894;2023-04-30T11:00:18;7.03;;;1.83;;
25946;SDS011;13745;51.470;9.894;2023-04-30T11:03:09;4.93;;;1.30;;
25946;SDS011;13745;51.470;9.894;2023-04-30T11:05:54;6.22;;;1.60;;
25946;SDS011;13745;51.470;9.894;2023-04-30T11:08:41;4.20;;;1.83;;
25946;SDS011;13745;51.470;9.894;2023-04-30T11:11:32;3.97;;;1.85;;
25946;SDS011;13745;51.470;9.894;2023-04-30T11:14:19;5.80;;;2.05;;
25946;SDS011;13745;51.470;9.894;2023-04-30T11:17:05;3.38;;;1.40;;
25946;SDS011;13745;51.470;9.894;2023-04-30T11:19:51;3.22;;;1.80;;
25946;SDS011;13745;51.470;9.894;2023-04-30T11:22:37;6.03;;;1.38;;
25946;SDS011;13745;51.470;9.894;2023-04-30T11:25:22;4.53;;;1.55;;
25946;SDS011;13745;51.470;9.894;2023-04-30T11:28:10;2.20;;;1.10;;
25946;SDS011;13745;51.470;9.894;2023-04-30T11:30:58;5.03;;;1.15;;
25946;SDS011;13745;51.470;9.894;2023-04-30T11:33:44;2.10;;;1.00;;
25946;SDS011;13745;51.470;9.894;2023-04-30T11:36:29;3.45;;;0.77;;
25946;SDS011;13745;51.470;9.894;2023-04-30T11:39:16;2.78;;;1.50;;
25946;SDS011;13745;51.470;9.894;2023-04-30T11:42:02;2.75;;;0.88;;
25946;SDS011;13745;51.470;9.894;2023-04-30T11:44:49;3.53;;;1.08;;
25946;SDS011;13745;51.470;9.894;2023-04-30T11:47:37;3.25;;;1.13;;
25946;SDS011;13745;51.470;9.894;2023-04-30T11:50:24;2.72;;;1.10;;
25946;SDS011;13745;51.470;9.894;2023-04-30T11:53:11;3.60;;;1.20;;
25946;SDS011;13745;51.470;9.894;2023-04-30T11:55:56;5.28;;;1.10;;
25946;SDS011;13745;51.470;9.894;2023-04-30T11:58:46;2.30;;;0.80;;
25946;SDS011;13745;51.470;9.894;2023-04-30T12:01:32;2.13;;;0.70;;
25946;SDS011;13745;51.470;9.894;2023-04-30T12:04:17;3.03;;;0.50;;
25946;SDS011;13745;51.470;9.894;2023-04-30T12:07:02;1.48;;;0.60;;
25946;SDS011;13745;51.470;9.894;2023-04-30T12:09:52;5.57;;;1.00;;
25946;SDS011;13745;51.470;9.894;2023-04-30T12:12:37;4.13;;;0.88;;
25946;SDS011;13745;51.470;9.894;2023-04-30T12:15:23;3.35;;;0.75;;
25946;SDS011;13745;51.470;9.894;2023-04-30T12:18:11;2.47;;;0.60;;
25946;SDS011;13745;51.470;9.894;2023-04-30T12:20:58;7.68;;;0.85;;
25946;SDS011;13745;51.470;9.894;2023-04-30T12:23:43;1.30;;;0.70;;
25946;SDS011;13745;51.470;9.894;2023-04-30T12:26:34;0.70;;;0.50;;
25946;SDS011;13745;51.470;9.894;2023-04-30T12:29:22;0.93;;;0.38;;
25946;SDS011;13745;51.470;9.894;2023-04-30T12:32:08;1.33;;;0.47;;
25946;SDS011;13745;51.470;9.894;2023-04-30T12:34:57;3.17;;;1.05;;
25946;SDS011;13745;51.470;9.894;2023-04-30T12:37:45;3.42;;;1.00;;
25946;SDS011;13745;51.470;9.894;2023-04-30T12:40:32;2.63;;;0.77;;
25946;SDS011;13745;51.470;9.894;2023-04-30T12:43:20;2.15;;;1.02;;
25946;SDS011;13745;51.470;9.894;2023-04-30T12:46:05;6.82;;;0.93;;
25946;SDS011;13745;51.470;9.894;2023-04-30T12:48:50;1.73;;;0.60;;
25946;SDS011;13745;51.470;9.894;2023-04-30T12:51:37;8.07;;;0.70;;
25946;SDS011;13745;51.470;9.894;2023-04-30T12:54:26;11.45;;;0.90;;
25946;SDS011;13745;51.470;9.894;2023-04-30T12:57:12;1.88;;;0.57;;
25946;SDS011;13745;51.470;9.894;2023-04-30T12:59:58;2.47;;;0.80;;
25946;SDS011;13745;51.470;9.894;2023-04-30T13:02:44;2.35;;;0.60;;
25946;SDS011;13745;51.470;9.894;2023-04-30T13:05:29;1.73;;;0.63;;
25946;SDS011;13745;51.470;9.894;2023-04-30T13:08:16;2.72;;;0.80;;
25946;SDS011;13745;51.470;9.894;2023-04-30T13:11:01;2.50;;;0.70;;
25946;SDS011;13745;51.470;9.894;2023-04-30T13:13:47;2.28;;;0.80;;
25946;SDS011;13745;51.470;9.894;2023-04-30T13:16:32;1.88;;;0.70;;
25946;SDS011;13745;51.470;9.894;2023-04-30T13:19:17;5.55;;;1.25;;
25946;SDS011;13745;51.470;9.894;2023-04-30T13:22:02;2.40;;;0.90;;
25946;SDS011;13745;51.470;9.894;2023-04-30T13:24:50;3.05;;;0.90;;
25946;SDS011;13745;51.470;9.894;2023-04-30T13:27:35;2.78;;;0.90;;
25946;SDS011;13745;51.470;9.894;2023-04-30T13:30:21;2.75;;;1.10;;
25946;SDS011;13745;51.470;9.894;2023-04-30T13:33:06;3.45;;;0.80;;
25946;SDS011;13745;51.470;9.894;2023-04-30T13:35:51;4.18;;;1.10;;
25946;SDS011;13745;51.470;9.894;2023-04-30T13:38:36;3.40;;;0.80;;
25946;SDS011;13745;51.470;9.894;2023-04-30T13:41:23;3.15;;;0.80;;
25946;SDS011;13745;51.470;9.894;2023-04-30T13:44:08;2.50;;;0.80;;
25946;SDS011;13745;51.470;9.894;2023-04-30T13:46:54;1.98;;;0.70;;
25946;SDS011;13745;51.470;9.894;2023-04-30T13:49:39;2.75;;;0.88;;
25946;SDS011;13745;51.470;9.894;2023-04-30T13:52:24;2.97;;;0.80;;
25946;SDS011;13745;51.470;9.894;2023-04-30T13:55:09;4.30;;;1.05;;
25946;SDS011;13745;51.470;9.894;2023-04-30T13:57:55;3.72;;;0.90;;
25946;SDS011;13745;51.470;9.894;2023-04-30T14:00:41;4.68;;;0.95;;
25946;SDS011;13745;51.470;9.894;2023-04-30T14:03:26;2.67;;;0.80;;
25946;SDS011;13745;51.470;9.894;2023-04-30T14:06:11;4.22;;;1.13;;
25946;SDS011;13745;51.470;9.894;2023-04-30T14:08:56;3.53;;;1.15;;
25946;SDS011;13745;51.470;9.894;2023-04-30T14:11:41;3.35;;;1.05;;
25946;SDS011;13745;51.470;9.894;2023-04-30T14:14:27;5.63;;;1.48;;
25946;SDS011;13745;51.470;9.894;2023-04-30T14:17:13;3.25;;;0.90;;
25946;SDS011;13745;51.470;9.894;2023-04-30T14:19:58;5.60;;;1.63;;
25946;SDS011;13745;51.470;9.894;2023-04-30T14:22:43;2.97;;;0.95;;
25946;SDS011;13745;51.470;9.894;2023-04-30T14:25:28;3.80;;;1.20;;
25946;SDS011;13745;51.470;9.894;2023-04-30T14:28:13;2.60;;;1.10;;
25946;SDS011;13745;51.470;9.894;2023-04-30T14:30:59;2.40;;;1.05;;
25946;SDS011;13745;51.470;9.894;2023-04-30T14:33:45;4.07;;;0.82;;
25946;SDS011;13745;51.470;9.894;2023-04-30T14:36:30;3.45;;;1.02;;
25946;SDS011;13745;51.470;9.894;2023-04-30T14:39:15;3.15;;;0.90;;
25946;SDS011;13745;51.470;9.894;2023-04-30T14:42:00;3.42;;;1.05;;
25946;SDS011;13745;51.470;9.894;2023-04-30T14:44:46;4.65;;;1.00;;
25946;SDS011;13745;51.470;9.894;2023-04-30T14:47:32;3.72;;;1.02;;
25946;SDS011;13745;51.470;9.894;2023-04-30T14:50:17;3.45;;;1.00;;
25946;SDS011;13745;51.470;9.894;2023-04-30T14:53:02;3.53;;;1.05;;
25946;SDS011;13745;51.470;9.894;2023-04-30T14:55:48;3.25;;;1.20;;
25946;SDS011;13745;51.470;9.894;2023-04-30T14:58:34;3.47;;;0.95;;
25946;SDS011;13745;51.470;9.894;2023-04-30T15:01:19;3.17;;;0.90;;
25946;SDS011;13745;51.470;9.894;2023-04-30T15:04:05;3.92;;;1.50;;
25946;SDS011;13745;51.470;9.894;2023-04-30T15:06:50;2.90;;;1.00;;
25946;SDS011;13745;51.470;9.894;2023-04-30T15:09:36;3.80;;;1.10;;
25946;SDS011;13745;51.470;9.894;2023-04-30T15:12:21;3.47;;;1.17;;
25946;SDS011;13745;51.470;9.894;2023-04-30T15:15:07;4.40;;;1.25;;
25946;SDS011;13745;51.470;9.894;2023-04-30T15:17:53;5.18;;;1.10;;
25946;SDS011;13745;51.470;9.894;2023-04-30T15:20:39;4.07;;;1.23;;
25946;SDS011;13745;51.470;9.894;2023-04-30T15:23:25;2.97;;;1.02;;
25946;SDS011;13745;51.470;9.894;2023-04-30T15:26:10;6.07;;;1.10;;
25946;SDS011;13745;51.470;9.894;2023-04-30T15:28:55;3.92;;;0.90;;
25946;SDS011;13745;51.470;9.894;2023-04-30T15:31:40;5.10;;;0.98;;
25946;SDS011;13745;51.470;9.894;2023-04-30T15:34:25;2.63;;;0.70;;
25946;SDS011;13745;51.470;9.894;2023-04-30T15:37:12;5.45;;;1.60;;
25946;SDS011;13745;51.470;9.894;2023-04-30T15:39:57;4.80;;;1.75;;
25946;SDS011;13745;51.470;9.894;2023-04-30T15:42:43;2.88;;;1.50;;
25946;SDS011;13745;51.470;9.894;2023-04-30T15:45:28;3.80;;;1.02;;
25946;SDS011;13745;51.470;9.894;2023-04-30T15:48:15;3.55;;;1.33;;
25946;SDS011;13745;51.470;9.894;2023-04-30T15:51:00;4.43;;;1.60;;
25946;SDS011;13745;51.470;9.894;2023-04-30T15:53:46;6.28;;;1.50;;
25946;SDS011;13745;51.470;9.894;2023-04-30T15:56:32;4.38;;;1.10;;
25946;SDS011;13745;51.470;9.894;2023-04-30T15:59:18;2.30;;;1.25;;
25946;SDS011;13745;51.470;9.894;2023-04-30T16:02:03;3.08;;;1.27;;
25946;SDS011;13745;51.470;9.894;2023-04-30T16:04:48;1.88;;;0.98;;
25946;SDS011;13745;51.470;9.894;2023-04-30T16:07:33;3.35;;;1.20;;
25946;SDS011;13745;51.470;9.894;2023-04-30T16:10:20;3.15;;;1.30;;
25946;SDS011;13745;51.470;9.894;2023-04-30T16:13:05;4.43;;;1.17;;
25946;SDS011;13745;51.470;9.894;2023-04-30T16:15:50;3.78;;;1.25;;
25946;SDS011;13745;51.470;9.894;2023-04-30T16:18:35;3.63;;;1.20;;
25946;SDS011;13745;51.470;9.894;2023-04-30T16:21:20;3.15;;;1.50;;
25946;SDS011;13745;51.470;9.894;2023-04-30T16:24:06;4.07;;;1.23;;
25946;SDS011;13745;51.470;9.894;2023-04-30T16:26:54;3.22;;;1.33;;
25946;SDS011;13745;51.470;9.894;2023-04-30T16:29:39;5.82;;;1.23;;
25946;SDS011;13745;51.470;9.894;2023-04-30T16:32:24;7.15;;;1.45;;
25946;SDS011;13745;51.470;9.894;2023-04-30T16:35:09;4.25;;;1.23;;
25946;SDS011;13745;51.470;9.894;2023-04-30T16:37:54;5.03;;;1.23;;
25946;SDS011;13745;51.470;9.894;2023-04-30T16:40:39;6.10;;;2.03;;
25946;SDS011;13745;51.470;9.894;2023-04-30T16:43:26;7.22;;;1.77;;
25946;SDS011;13745;51.470;9.894;2023-04-30T16:46:11;6.97;;;1.90;;